sensor_id;sensor_type;location;lat;lon;timestamp;temperature;humidity
31133;DHT22;17779;50.942;4.026;2022-09-02T00:00:40;19.60;99.90
31133;DHT22;17779;50.942;4.026;2022-09-02T00:03:06;19.60;99.90
31133;DHT22;17779;50.942;4.026;2022-09-02T00:05:32;19.40;99.90
31133;DHT22;17779;50.942;4.026;2022-09-02T00:07:58;19.30;99.90
31133;DHT22;17779;50.942;4.026;2022-09-02T00:10:23;19.40;99.90
31133;DHT22;17779;50.942;4.026;2022-09-02T00:12:49;19.40;99.90
31133;DHT22;17779;50.942;4.026;2022-09-02T00:15:14;19.30;99.90
31133;DHT22;17779;50.942;4.026;2022-09-02T00:17:41;19.20;99.90
31133;DHT22;17779;50.942;4.026;2022-09-02T00:20:07;19.20;99.90
31133;DHT22;17779;50.942;4.026;2022-09-02T00:22:32;19.00;99.90
31133;DHT22;17779;50.942;4.026;2022-09-02T00:24:59;18.90;99.90
31133;DHT22;17779;50.942;4.026;2022-09-02T00:27:24;18.70;99.90
31133;DHT22;17779;50.942;4.026;2022-09-02T00:29:51;18.70;99.90
31133;DHT22;17779;50.942;4.026;2022-09-02T00:32:17;18.90;99.90
31133;DHT22;17779;50.942;4.026;2022-09-02T00:34:43;18.90;99.90
31133;DHT22;17779;50.942;4.026;2022-09-02T00:37:09;18.80;99.90
31133;DHT22;17779;50.942;4.026;2022-09-02T00:39:35;18.90;99.90
31133;DHT22;17779;50.942;4.026;2022-09-02T00:42:01;19.00;99.90
31133;DHT22;17779;50.942;4.026;2022-09-02T00:44:27;19.00;99.90
31133;DHT22;17779;50.942;4.026;2022-09-02T00:46:52;18.90;99.90
31133;DHT22;17779;50.942;4.026;2022-09-02T00:49:25;19.00;99.90
31133;DHT22;17779;50.942;4.026;2022-09-02T00:54:27;18.70;99.90
31133;DHT22;17779;50.942;4.026;2022-09-02T00:56:54;18.60;99.90
31133;DHT22;17779;50.942;4.026;2022-09-02T00:59:35;18.30;99.90
31133;DHT22;17779;50.942;4.026;2022-09-02T01:02:04;18.30;99.90
31133;DHT22;17779;50.942;4.026;2022-09-02T01:04:31;18.30;99.90
31133;DHT22;17779;50.942;4.026;2022-09-02T01:06:57;18.30;99.90
31133;DHT22;17779;50.942;4.026;2022-09-02T01:09:22;18.40;99.90
31133;DHT22;17779;50.942;4.026;2022-09-02T01:11:48;18.20;99.90
31133;DHT22;17779;50.942;4.026;2022-09-02T01:14:17;18.00;99.90
31133;DHT22;17779;50.942;4.026;2022-09-02T01:16:45;17.80;99.90
31133;DHT22;17779;50.942;4.026;2022-09-02T01:19:17;17.70;99.90
31133;DHT22;17779;50.942;4.026;2022-09-02T01:21:45;17.60;99.90
31133;DHT22;17779;50.942;4.026;2022-09-02T01:24:11;17.70;99.90
31133;DHT22;17779;50.942;4.026;2022-09-02T01:26:37;17.80;99.90
31133;DHT22;17779;50.942;4.026;2022-09-02T01:29:02;18.00;99.90
31133;DHT22;17779;50.942;4.026;2022-09-02T01:31:28;18.10;99.90
31133;DHT22;17779;50.942;4.026;2022-09-02T01:33:54;18.20;99.90
31133;DHT22;17779;50.942;4.026;2022-09-02T01:36:20;18.20;99.90
31133;DHT22;17779;50.942;4.026;2022-09-02T01:38:46;18.20;99.90
31133;DHT22;17779;50.942;4.026;2022-09-02T01:41:12;18.10;99.90
31133;DHT22;17779;50.942;4.026;2022-09-02T01:43:37;18.00;99.90
31133;DHT22;17779;50.942;4.026;2022-09-02T01:46:03;18.00;99.90
31133;DHT22;17779;50.942;4.026;2022-09-02T01:48:29;18.10;99.90
31133;DHT22;17779;50.942;4.026;2022-09-02T01:50:56;18.00;99.90
31133;DHT22;17779;50.942;4.026;2022-09-02T01:53:22;18.10;99.90
31133;DHT22;17779;50.942;4.026;2022-09-02T01:55:49;17.70;99.90
31133;DHT22;17779;50.942;4.026;2022-09-02T01:58:14;17.40;99.90
31133;DHT22;17779;50.942;4.026;2022-09-02T02:00:40;17.30;99.90
31133;DHT22;17779;50.942;4.026;2022-09-02T02:03:06;17.50;99.90
31133;DHT22;17779;50.942;4.026;2022-09-02T02:05:31;17.50;99.90
31133;DHT22;17779;50.942;4.026;2022-09-02T02:07:57;17.30;99.90
31133;DHT22;17779;50.942;4.026;2022-09-02T02:10:23;17.20;99.90
31133;DHT22;17779;50.942;4.026;2022-09-02T02:12:49;17.40;99.90
31133;DHT22;17779;50.942;4.026;2022-09-02T02:15:17;17.40;99.90
31133;DHT22;17779;50.942;4.026;2022-09-02T02:17:42;17.60;99.90
31133;DHT22;17779;50.942;4.026;2022-09-02T02:20:09;17.60;99.90
31133;DHT22;17779;50.942;4.026;2022-09-02T02:22:35;17.60;99.90
31133;DHT22;17779;50.942;4.026;2022-09-02T02:25:01;17.60;99.90
31133;DHT22;17779;50.942;4.026;2022-09-02T02:27:27;17.60;99.90
31133;DHT22;17779;50.942;4.026;2022-09-02T02:29:52;17.70;99.90
31133;DHT22;17779;50.942;4.026;2022-09-02T02:32:18;17.70;99.90
31133;DHT22;17779;50.942;4.026;2022-09-02T02:34:44;17.60;99.90
31133;DHT22;17779;50.942;4.026;2022-09-02T02:37:10;17.60;99.90
31133;DHT22;17779;50.942;4.026;2022-09-02T02:39:40;17.40;99.90
31133;DHT22;17779;50.942;4.026;2022-09-02T02:42:06;17.40;99.90
31133;DHT22;17779;50.942;4.026;2022-09-02T02:44:32;17.30;99.90
31133;DHT22;17779;50.942;4.026;2022-09-02T02:46:58;17.30;99.90
31133;DHT22;17779;50.942;4.026;2022-09-02T02:49:24;17.30;99.90
31133;DHT22;17779;50.942;4.026;2022-09-02T02:51:51;17.30;99.90
31133;DHT22;17779;50.942;4.026;2022-09-02T02:54:18;17.10;99.90
31133;DHT22;17779;50.942;4.026;2022-09-02T02:56:44;17.00;99.90
31133;DHT22;17779;50.942;4.026;2022-09-02T02:59:09;17.10;99.90
31133;DHT22;17779;50.942;4.026;2022-09-02T03:01:35;17.00;99.90
31133;DHT22;17779;50.942;4.026;2022-09-02T03:04:01;17.10;99.90
31133;DHT22;17779;50.942;4.026;2022-09-02T03:06:27;17.30;99.90
31133;DHT22;17779;50.942;4.026;2022-09-02T03:08:54;17.40;99.90
31133;DHT22;17779;50.942;4.026;2022-09-02T03:11:22;17.40;99.90
31133;DHT22;17779;50.942;4.026;2022-09-02T03:13:51;17.30;99.90
31133;DHT22;17779;50.942;4.026;2022-09-02T03:16:16;17.00;99.90
31133;DHT22;17779;50.942;4.026;2022-09-02T03:18:45;16.80;99.90
31133;DHT22;17779;50.942;4.026;2022-09-02T03:21:11;16.60;99.90
31133;DHT22;17779;50.942;4.026;2022-09-02T03:23:38;16.70;99.90
31133;DHT22;17779;50.942;4.026;2022-09-02T03:26:16;16.90;99.90
31133;DHT22;17779;50.942;4.026;2022-09-02T03:28:43;17.00;99.90
31133;DHT22;17779;50.942;4.026;2022-09-02T03:31:12;16.90;99.90
31133;DHT22;17779;50.942;4.026;2022-09-02T03:33:38;17.00;99.90
31133;DHT22;17779;50.942;4.026;2022-09-02T03:36:03;17.10;99.90
31133;DHT22;17779;50.942;4.026;2022-09-02T03:38:29;17.10;99.90
31133;DHT22;17779;50.942;4.026;2022-09-02T03:40:55;17.30;99.90
31133;DHT22;17779;50.942;4.026;2022-09-02T03:43:20;17.40;99.90
31133;DHT22;17779;50.942;4.026;2022-09-02T03:45:46;17.30;99.90
31133;DHT22;17779;50.942;4.026;2022-09-02T03:48:13;17.00;99.90
31133;DHT22;17779;50.942;4.026;2022-09-02T03:50:42;16.70;99.90
31133;DHT22;17779;50.942;4.026;2022-09-02T03:53:07;16.60;99.90
31133;DHT22;17779;50.942;4.026;2022-09-02T03:55:34;16.80;99.90
31133;DHT22;17779;50.942;4.026;2022-09-02T03:58:00;16.60;99.90
31133;DHT22;17779;50.942;4.026;2022-09-02T04:00:26;16.70;99.90
31133;DHT22;17779;50.942;4.026;2022-09-02T04:02:56;16.90;99.90
31133;DHT22;17779;50.942;4.026;2022-09-02T04:05:22;16.90;99.90
31133;DHT22;17779;50.942;4.026;2022-09-02T04:07:48;16.90;99.90
31133;DHT22;17779;50.942;4.026;2022-09-02T04:10:15;16.90;99.90
31133;DHT22;17779;50.942;4.026;2022-09-02T04:12:42;16.90;99.90
31133;DHT22;17779;50.942;4.026;2022-09-02T04:15:08;16.80;99.90
31133;DHT22;17779;50.942;4.026;2022-09-02T04:17:35;16.70;99.90
31133;DHT22;17779;50.942;4.026;2022-09-02T04:20:02;16.60;99.90
31133;DHT22;17779;50.942;4.026;2022-09-02T04:22:28;16.50;99.90
31133;DHT22;17779;50.942;4.026;2022-09-02T04:24:53;16.40;99.90
31133;DHT22;17779;50.942;4.026;2022-09-02T04:27:19;16.40;99.90
31133;DHT22;17779;50.942;4.026;2022-09-02T04:29:45;16.30;99.90
31133;DHT22;17779;50.942;4.026;2022-09-02T04:32:10;16.30;99.90
31133;DHT22;17779;50.942;4.026;2022-09-02T04:34:36;16.30;99.90
31133;DHT22;17779;50.942;4.026;2022-09-02T04:37:01;16.20;99.90
31133;DHT22;17779;50.942;4.026;2022-09-02T04:39:27;16.40;99.90
31133;DHT22;17779;50.942;4.026;2022-09-02T04:41:53;16.40;99.90
31133;DHT22;17779;50.942;4.026;2022-09-02T04:44:18;16.60;99.90
31133;DHT22;17779;50.942;4.026;2022-09-02T04:46:44;16.60;99.90
31133;DHT22;17779;50.942;4.026;2022-09-02T04:49:10;16.60;99.90
31133;DHT22;17779;50.942;4.026;2022-09-02T04:51:35;16.70;99.90
31133;DHT22;17779;50.942;4.026;2022-09-02T04:54:02;16.90;99.90
31133;DHT22;17779;50.942;4.026;2022-09-02T04:56:28;17.00;99.90
31133;DHT22;17779;50.942;4.026;2022-09-02T04:58:54;16.80;99.90
31133;DHT22;17779;50.942;4.026;2022-09-02T05:01:21;16.70;99.90
31133;DHT22;17779;50.942;4.026;2022-09-02T05:03:47;16.80;99.90
31133;DHT22;17779;50.942;4.026;2022-09-02T05:06:15;16.90;99.90
31133;DHT22;17779;50.942;4.026;2022-09-02T05:08:41;17.10;99.90
31133;DHT22;17779;50.942;4.026;2022-09-02T05:11:09;17.10;99.90
31133;DHT22;17779;50.942;4.026;2022-09-02T05:13:35;17.10;99.90
31133;DHT22;17779;50.942;4.026;2022-09-02T05:16:00;17.00;99.90
31133;DHT22;17779;50.942;4.026;2022-09-02T05:18:27;16.90;99.90
31133;DHT22;17779;50.942;4.026;2022-09-02T05:23:21;17.10;99.90
31133;DHT22;17779;50.942;4.026;2022-09-02T05:25:46;17.10;99.90
31133;DHT22;17779;50.942;4.026;2022-09-02T05:28:13;17.20;99.90
31133;DHT22;17779;50.942;4.026;2022-09-02T05:30:40;16.90;99.90
31133;DHT22;17779;50.942;4.026;2022-09-02T05:33:09;17.00;99.90
31133;DHT22;17779;50.942;4.026;2022-09-02T05:35:40;17.00;99.90
31133;DHT22;17779;50.942;4.026;2022-09-02T05:38:08;17.10;99.90
31133;DHT22;17779;50.942;4.026;2022-09-02T05:40:37;17.30;99.90
31133;DHT22;17779;50.942;4.026;2022-09-02T05:43:04;17.30;99.90
31133;DHT22;17779;50.942;4.026;2022-09-02T05:45:29;17.30;99.90
31133;DHT22;17779;50.942;4.026;2022-09-02T05:47:57;17.50;99.90
31133;DHT22;17779;50.942;4.026;2022-09-02T05:50:24;17.70;99.90
31133;DHT22;17779;50.942;4.026;2022-09-02T05:52:51;17.70;99.90
31133;DHT22;17779;50.942;4.026;2022-09-02T05:55:19;17.60;99.90
31133;DHT22;17779;50.942;4.026;2022-09-02T05:57:44;17.70;99.90
31133;DHT22;17779;50.942;4.026;2022-09-02T06:00:10;17.90;99.90
31133;DHT22;17779;50.942;4.026;2022-09-02T06:02:37;18.10;99.90
31133;DHT22;17779;50.942;4.026;2022-09-02T06:05:03;18.30;99.90
31133;DHT22;17779;50.942;4.026;2022-09-02T06:07:31;18.40;99.90
31133;DHT22;17779;50.942;4.026;2022-09-02T06:10:01;18.40;99.90
31133;DHT22;17779;50.942;4.026;2022-09-02T06:12:27;18.40;99.90
31133;DHT22;17779;50.942;4.026;2022-09-02T06:14:55;18.70;99.90
31133;DHT22;17779;50.942;4.026;2022-09-02T06:17:20;18.80;99.90
31133;DHT22;17779;50.942;4.026;2022-09-02T06:19:47;18.70;99.90
31133;DHT22;17779;50.942;4.026;2022-09-02T06:22:13;18.70;99.90
31133;DHT22;17779;50.942;4.026;2022-09-02T06:24:38;18.90;99.90
31133;DHT22;17779;50.942;4.026;2022-09-02T06:27:06;18.90;99.90
31133;DHT22;17779;50.942;4.026;2022-09-02T06:29:32;18.90;99.90
31133;DHT22;17779;50.942;4.026;2022-09-02T06:31:59;18.90;99.90
31133;DHT22;17779;50.942;4.026;2022-09-02T06:34:25;18.70;99.90
31133;DHT22;17779;50.942;4.026;2022-09-02T06:36:52;18.80;99.90
31133;DHT22;17779;50.942;4.026;2022-09-02T06:39:19;18.70;99.90
31133;DHT22;17779;50.942;4.026;2022-09-02T06:41:45;19.00;99.90
31133;DHT22;17779;50.942;4.026;2022-09-02T06:44:13;19.40;99.90
31133;DHT22;17779;50.942;4.026;2022-09-02T06:46:43;19.60;99.90
31133;DHT22;17779;50.942;4.026;2022-09-02T06:49:09;19.60;99.90
31133;DHT22;17779;50.942;4.026;2022-09-02T06:51:36;19.80;99.90
31133;DHT22;17779;50.942;4.026;2022-09-02T06:54:03;19.80;99.90
31133;DHT22;17779;50.942;4.026;2022-09-02T06:56:28;19.80;99.90
31133;DHT22;17779;50.942;4.026;2022-09-02T06:58:54;19.90;99.90
31133;DHT22;17779;50.942;4.026;2022-09-02T07:01:22;19.90;99.90
31133;DHT22;17779;50.942;4.026;2022-09-02T07:03:49;20.20;99.90
31133;DHT22;17779;50.942;4.026;2022-09-02T07:06:35;20.60;99.90
31133;DHT22;17779;50.942;4.026;2022-09-02T07:09:06;20.90;99.90
31133;DHT22;17779;50.942;4.026;2022-09-02T07:11:33;21.20;99.90
31133;DHT22;17779;50.942;4.026;2022-09-02T07:13:59;21.00;99.90
31133;DHT22;17779;50.942;4.026;2022-09-02T07:16:29;20.80;99.90
31133;DHT22;17779;50.942;4.026;2022-09-02T07:18:57;20.60;99.90
31133;DHT22;17779;50.942;4.026;2022-09-02T07:21:26;20.80;99.90
31133;DHT22;17779;50.942;4.026;2022-09-02T07:23:52;21.20;99.90
31133;DHT22;17779;50.942;4.026;2022-09-02T07:26:17;22.20;99.90
31133;DHT22;17779;50.942;4.026;2022-09-02T07:28:43;24.40;99.90
31133;DHT22;17779;50.942;4.026;2022-09-02T07:31:09;26.60;99.90
31133;DHT22;17779;50.942;4.026;2022-09-02T07:33:34;28.70;99.90
31133;DHT22;17779;50.942;4.026;2022-09-02T07:36:02;30.20;98.80
31133;DHT22;17779;50.942;4.026;2022-09-02T07:38:29;30.40;97.60
31133;DHT22;17779;50.942;4.026;2022-09-02T07:40:56;31.50;95.50
31133;DHT22;17779;50.942;4.026;2022-09-02T07:43:21;31.80;92.80
31133;DHT22;17779;50.942;4.026;2022-09-02T07:45:48;30.90;93.30
31133;DHT22;17779;50.942;4.026;2022-09-02T07:48:15;30.50;93.30
31133;DHT22;17779;50.942;4.026;2022-09-02T07:50:40;29.30;95.40
31133;DHT22;17779;50.942;4.026;2022-09-02T07:53:06;30.30;94.50
31133;DHT22;17779;50.942;4.026;2022-09-02T07:55:33;32.10;92.50
31133;DHT22;17779;50.942;4.026;2022-09-02T07:57:59;30.60;92.30
31133;DHT22;17779;50.942;4.026;2022-09-02T08:00:25;30.00;92.30
31133;DHT22;17779;50.942;4.026;2022-09-02T08:02:52;30.50;92.80
31133;DHT22;17779;50.942;4.026;2022-09-02T08:05:17;31.20;92.00
31133;DHT22;17779;50.942;4.026;2022-09-02T08:07:43;31.10;91.50
31133;DHT22;17779;50.942;4.026;2022-09-02T08:10:10;29.60;92.50
31133;DHT22;17779;50.942;4.026;2022-09-02T08:12:38;29.50;93.00
31133;DHT22;17779;50.942;4.026;2022-09-02T08:15:05;30.10;92.90
31133;DHT22;17779;50.942;4.026;2022-09-02T08:17:31;31.70;91.80
31133;DHT22;17779;50.942;4.026;2022-09-02T08:19:56;31.50;90.90
31133;DHT22;17779;50.942;4.026;2022-09-02T08:22:23;30.80;91.90
31133;DHT22;17779;50.942;4.026;2022-09-02T08:24:50;29.90;92.80
31133;DHT22;17779;50.942;4.026;2022-09-02T08:27:15;30.10;92.50
31133;DHT22;17779;50.942;4.026;2022-09-02T08:29:41;29.70;92.70
31133;DHT22;17779;50.942;4.026;2022-09-02T08:32:07;29.40;92.90
31133;DHT22;17779;50.942;4.026;2022-09-02T08:34:33;29.50;92.90
31133;DHT22;17779;50.942;4.026;2022-09-02T08:36:58;30.30;92.90
31133;DHT22;17779;50.942;4.026;2022-09-02T08:39:24;31.60;91.50
31133;DHT22;17779;50.942;4.026;2022-09-02T08:41:53;30.70;91.80
31133;DHT22;17779;50.942;4.026;2022-09-02T08:44:21;32.20;90.50
31133;DHT22;17779;50.942;4.026;2022-09-02T08:46:57;31.60;91.00
31133;DHT22;17779;50.942;4.026;2022-09-02T08:49:29;31.00;91.40
31133;DHT22;17779;50.942;4.026;2022-09-02T08:51:59;32.60;90.00
31133;DHT22;17779;50.942;4.026;2022-09-02T08:57:07;33.80;87.00
31133;DHT22;17779;50.942;4.026;2022-09-02T08:59:34;33.20;86.00
31133;DHT22;17779;50.942;4.026;2022-09-02T09:02:20;33.50;85.20
31133;DHT22;17779;50.942;4.026;2022-09-02T09:10:02;33.10;84.00
31133;DHT22;17779;50.942;4.026;2022-09-02T09:15:04;35.40;80.60
31133;DHT22;17779;50.942;4.026;2022-09-02T09:17:53;35.80;78.20
31133;DHT22;17779;50.942;4.026;2022-09-02T09:20:32;34.20;80.50
31133;DHT22;17779;50.942;4.026;2022-09-02T09:23:05;34.80;80.10
31133;DHT22;17779;50.942;4.026;2022-09-02T09:25:33;35.20;78.30
31133;DHT22;17779;50.942;4.026;2022-09-02T09:30:28;35.70;77.60
31133;DHT22;17779;50.942;4.026;2022-09-02T09:32:55;35.30;77.70
31133;DHT22;17779;50.942;4.026;2022-09-02T09:35:23;35.10;77.50
31133;DHT22;17779;50.942;4.026;2022-09-02T09:37:55;34.60;77.90
31133;DHT22;17779;50.942;4.026;2022-09-02T09:40:25;34.80;76.70
31133;DHT22;17779;50.942;4.026;2022-09-02T09:42:59;32.70;79.80
31133;DHT22;17779;50.942;4.026;2022-09-02T09:45:37;33.00;81.00
31133;DHT22;17779;50.942;4.026;2022-09-02T09:48:19;35.10;77.70
31133;DHT22;17779;50.942;4.026;2022-09-02T09:55:52;35.20;76.10
31133;DHT22;17779;50.942;4.026;2022-09-02T09:58:19;32.80;79.10
31133;DHT22;17779;50.942;4.026;2022-09-02T10:00:46;32.60;80.20
31133;DHT22;17779;50.942;4.026;2022-09-02T10:03:21;32.60;81.60
31133;DHT22;17779;50.942;4.026;2022-09-02T10:05:59;34.20;78.90
31133;DHT22;17779;50.942;4.026;2022-09-02T10:08:36;33.20;78.10
31133;DHT22;17779;50.942;4.026;2022-09-02T10:11:24;32.60;80.40
31133;DHT22;17779;50.942;4.026;2022-09-02T10:13:50;33.20;79.00
31133;DHT22;17779;50.942;4.026;2022-09-02T10:16:24;33.50;79.30
31133;DHT22;17779;50.942;4.026;2022-09-02T10:18:55;34.80;76.60
31133;DHT22;17779;50.942;4.026;2022-09-02T10:21:41;33.60;77.50
31133;DHT22;17779;50.942;4.026;2022-09-02T10:26:48;34.00;77.40
31133;DHT22;17779;50.942;4.026;2022-09-02T10:34:39;36.10;73.50
31133;DHT22;17779;50.942;4.026;2022-09-02T10:37:13;36.50;72.10
31133;DHT22;17779;50.942;4.026;2022-09-02T10:47:36;34.70;73.70
31133;DHT22;17779;50.942;4.026;2022-09-02T10:58:02;33.20;75.00
31133;DHT22;17779;50.942;4.026;2022-09-02T11:00:29;33.30;75.90
31133;DHT22;17779;50.942;4.026;2022-09-02T11:05:51;33.10;75.30
31133;DHT22;17779;50.942;4.026;2022-09-02T11:11:16;34.20;73.70
31133;DHT22;17779;50.942;4.026;2022-09-02T11:13:53;33.50;73.80
31133;DHT22;17779;50.942;4.026;2022-09-02T11:24:18;35.50;72.20
31133;DHT22;17779;50.942;4.026;2022-09-02T11:32:09;34.70;72.60
31133;DHT22;17779;50.942;4.026;2022-09-02T11:34:40;34.70;72.10
31133;DHT22;17779;50.942;4.026;2022-09-02T11:37:08;34.60;72.30
31133;DHT22;17779;50.942;4.026;2022-09-02T11:39:46;32.20;75.20
31133;DHT22;17779;50.942;4.026;2022-09-02T11:47:34;31.80;76.30
31133;DHT22;17779;50.942;4.026;2022-09-02T11:55:20;33.00;75.30
31133;DHT22;17779;50.942;4.026;2022-09-02T11:57:53;34.00;72.50
31133;DHT22;17779;50.942;4.026;2022-09-02T12:00:26;32.30;73.20
31133;DHT22;17779;50.942;4.026;2022-09-02T12:08:02;34.10;71.70
31133;DHT22;17779;50.942;4.026;2022-09-02T12:13:30;36.90;67.20
31133;DHT22;17779;50.942;4.026;2022-09-02T12:18:42;35.60;66.80
31133;DHT22;17779;50.942;4.026;2022-09-02T12:21:19;34.80;67.00
31133;DHT22;17779;50.942;4.026;2022-09-02T12:26:15;31.30;72.10
31133;DHT22;17779;50.942;4.026;2022-09-02T12:28:45;31.60;73.10
31133;DHT22;17779;50.942;4.026;2022-09-02T12:33:47;35.40;68.30
31133;DHT22;17779;50.942;4.026;2022-09-02T12:55:12;34.20;66.30
31133;DHT22;17779;50.942;4.026;2022-09-02T12:57:41;33.40;67.60
31133;DHT22;17779;50.942;4.026;2022-09-02T13:00:12;34.50;66.70
31133;DHT22;17779;50.942;4.026;2022-09-02T13:05:17;35.10;64.90
31133;DHT22;17779;50.942;4.026;2022-09-02T13:26:09;30.20;72.70
31133;DHT22;17779;50.942;4.026;2022-09-02T13:31:24;29.80;73.60
31133;DHT22;17779;50.942;4.026;2022-09-02T13:36:45;29.20;74.50
31133;DHT22;17779;50.942;4.026;2022-09-02T13:39:23;29.00;75.70
31133;DHT22;17779;50.942;4.026;2022-09-02T13:41:51;29.10;75.30
31133;DHT22;17779;50.942;4.026;2022-09-02T13:44:24;29.40;74.10
31133;DHT22;17779;50.942;4.026;2022-09-02T13:46:56;29.30;74.50
31133;DHT22;17779;50.942;4.026;2022-09-02T13:49:39;29.00;74.70
31133;DHT22;17779;50.942;4.026;2022-09-02T13:52:05;29.30;74.50
31133;DHT22;17779;50.942;4.026;2022-09-02T13:54:36;29.10;74.40
31133;DHT22;17779;50.942;4.026;2022-09-02T13:57:06;29.10;74.70
31133;DHT22;17779;50.942;4.026;2022-09-02T13:59:34;29.30;74.30
31133;DHT22;17779;50.942;4.026;2022-09-02T14:02:23;29.40;74.70
31133;DHT22;17779;50.942;4.026;2022-09-02T14:04:48;29.00;75.00
31133;DHT22;17779;50.942;4.026;2022-09-02T14:07:14;29.00;75.10
31133;DHT22;17779;50.942;4.026;2022-09-02T14:09:43;28.80;75.60
31133;DHT22;17779;50.942;4.026;2022-09-02T14:12:09;28.70;76.00
31133;DHT22;17779;50.942;4.026;2022-09-02T14:14:36;28.60;77.10
31133;DHT22;17779;50.942;4.026;2022-09-02T14:19:46;28.20;77.30
31133;DHT22;17779;50.942;4.026;2022-09-02T14:22:22;28.30;77.00
31133;DHT22;17779;50.942;4.026;2022-09-02T14:24:48;28.50;76.40
31133;DHT22;17779;50.942;4.026;2022-09-02T14:27:17;28.50;76.70
31133;DHT22;17779;50.942;4.026;2022-09-02T14:29:44;28.40;76.20
31133;DHT22;17779;50.942;4.026;2022-09-02T14:32:13;28.40;75.80
31133;DHT22;17779;50.942;4.026;2022-09-02T14:34:42;28.30;75.80
31133;DHT22;17779;50.942;4.026;2022-09-02T14:39:53;28.90;74.40
31133;DHT22;17779;50.942;4.026;2022-09-02T14:42:19;29.20;74.70
31133;DHT22;17779;50.942;4.026;2022-09-02T14:44:45;29.50;73.40
31133;DHT22;17779;50.942;4.026;2022-09-02T14:47:12;29.30;72.50
31133;DHT22;17779;50.942;4.026;2022-09-02T14:49:45;29.50;72.50
31133;DHT22;17779;50.942;4.026;2022-09-02T14:52:19;29.40;72.20
31133;DHT22;17779;50.942;4.026;2022-09-02T14:54:47;29.60;72.60
31133;DHT22;17779;50.942;4.026;2022-09-02T14:57:21;30.00;73.00
31133;DHT22;17779;50.942;4.026;2022-09-02T14:59:48;29.80;71.30
31133;DHT22;17779;50.942;4.026;2022-09-02T15:02:27;29.50;72.10
31133;DHT22;17779;50.942;4.026;2022-09-02T15:04:54;29.10;72.80
31133;DHT22;17779;50.942;4.026;2022-09-02T15:07:21;29.00;73.50
31133;DHT22;17779;50.942;4.026;2022-09-02T15:09:47;29.30;73.10
31133;DHT22;17779;50.942;4.026;2022-09-02T15:12:16;29.40;71.30
31133;DHT22;17779;50.942;4.026;2022-09-02T15:14:44;28.80;72.00
31133;DHT22;17779;50.942;4.026;2022-09-02T15:17:10;28.80;72.30
31133;DHT22;17779;50.942;4.026;2022-09-02T15:19:37;28.90;72.10
31133;DHT22;17779;50.942;4.026;2022-09-02T15:22:02;28.80;72.30
31133;DHT22;17779;50.942;4.026;2022-09-02T15:24:28;28.50;72.90
31133;DHT22;17779;50.942;4.026;2022-09-02T15:26:56;28.40;73.00
31133;DHT22;17779;50.942;4.026;2022-09-02T15:29:22;28.40;73.50
31133;DHT22;17779;50.942;4.026;2022-09-02T15:31:51;28.40;73.80
31133;DHT22;17779;50.942;4.026;2022-09-02T15:34:20;28.40;74.20
31133;DHT22;17779;50.942;4.026;2022-09-02T15:36:46;28.50;74.10
31133;DHT22;17779;50.942;4.026;2022-09-02T15:39:12;28.40;73.30
31133;DHT22;17779;50.942;4.026;2022-09-02T15:41:39;28.30;74.30
31133;DHT22;17779;50.942;4.026;2022-09-02T15:44:07;28.50;73.60
31133;DHT22;17779;50.942;4.026;2022-09-02T15:46:33;28.60;73.40
31133;DHT22;17779;50.942;4.026;2022-09-02T15:49:03;28.50;73.60
31133;DHT22;17779;50.942;4.026;2022-09-02T15:51:29;28.60;73.00
31133;DHT22;17779;50.942;4.026;2022-09-02T15:53:56;28.40;73.10
31133;DHT22;17779;50.942;4.026;2022-09-02T15:56:26;28.60;73.70
31133;DHT22;17779;50.942;4.026;2022-09-02T16:01:23;28.70;72.70
31133;DHT22;17779;50.942;4.026;2022-09-02T16:03:48;28.50;72.50
31133;DHT22;17779;50.942;4.026;2022-09-02T16:06:15;28.90;72.50
31133;DHT22;17779;50.942;4.026;2022-09-02T16:08:41;29.00;72.20
31133;DHT22;17779;50.942;4.026;2022-09-02T16:11:07;29.20;71.90
31133;DHT22;17779;50.942;4.026;2022-09-02T16:13:34;28.90;72.30
31133;DHT22;17779;50.942;4.026;2022-09-02T16:16:00;28.40;73.30
31133;DHT22;17779;50.942;4.026;2022-09-02T16:18:26;28.50;73.40
31133;DHT22;17779;50.942;4.026;2022-09-02T16:20:53;28.60;72.70
31133;DHT22;17779;50.942;4.026;2022-09-02T16:23:18;28.60;72.40
31133;DHT22;17779;50.942;4.026;2022-09-02T16:25:44;28.50;72.40
31133;DHT22;17779;50.942;4.026;2022-09-02T16:28:09;28.70;72.10
31133;DHT22;17779;50.942;4.026;2022-09-02T16:30:36;28.60;72.50
31133;DHT22;17779;50.942;4.026;2022-09-02T16:33:02;28.20;75.00
31133;DHT22;17779;50.942;4.026;2022-09-02T16:35:28;28.10;83.60
31133;DHT22;17779;50.942;4.026;2022-09-02T16:37:53;28.00;86.10
31133;DHT22;17779;50.942;4.026;2022-09-02T16:40:21;27.70;88.60
31133;DHT22;17779;50.942;4.026;2022-09-02T16:42:47;27.40;90.30
31133;DHT22;17779;50.942;4.026;2022-09-02T16:45:13;27.20;91.20
31133;DHT22;17779;50.942;4.026;2022-09-02T16:47:39;27.00;91.80
31133;DHT22;17779;50.942;4.026;2022-09-02T16:50:05;26.90;92.40
31133;DHT22;17779;50.942;4.026;2022-09-02T16:52:31;27.00;92.40
31133;DHT22;17779;50.942;4.026;2022-09-02T16:54:59;27.00;92.70
31133;DHT22;17779;50.942;4.026;2022-09-02T16:57:25;27.00;93.10
31133;DHT22;17779;50.942;4.026;2022-09-02T16:59:51;26.80;93.50
31133;DHT22;17779;50.942;4.026;2022-09-02T17:02:17;27.00;93.40
31133;DHT22;17779;50.942;4.026;2022-09-02T17:04:44;27.00;93.60
31133;DHT22;17779;50.942;4.026;2022-09-02T17:07:09;27.10;93.70
31133;DHT22;17779;50.942;4.026;2022-09-02T17:09:35;26.80;94.50
31133;DHT22;17779;50.942;4.026;2022-09-02T17:12:00;26.60;95.30
31133;DHT22;17779;50.942;4.026;2022-09-02T17:14:28;26.40;95.70
31133;DHT22;17779;50.942;4.026;2022-09-02T17:16:54;26.40;95.90
31133;DHT22;17779;50.942;4.026;2022-09-02T17:19:19;26.40;96.30
31133;DHT22;17779;50.942;4.026;2022-09-02T17:21:49;26.20;97.00
31133;DHT22;17779;50.942;4.026;2022-09-02T17:24:19;26.00;97.90
31133;DHT22;17779;50.942;4.026;2022-09-02T17:26:46;26.00;98.50
31133;DHT22;17779;50.942;4.026;2022-09-02T17:29:12;25.80;99.30
31133;DHT22;17779;50.942;4.026;2022-09-02T17:31:38;25.60;99.90
31133;DHT22;17779;50.942;4.026;2022-09-02T17:34:07;25.50;99.90
31133;DHT22;17779;50.942;4.026;2022-09-02T17:36:33;25.40;99.90
31133;DHT22;17779;50.942;4.026;2022-09-02T17:39:00;25.30;99.90
31133;DHT22;17779;50.942;4.026;2022-09-02T17:41:26;25.20;99.90
31133;DHT22;17779;50.942;4.026;2022-09-02T17:44:11;25.10;99.90
31133;DHT22;17779;50.942;4.026;2022-09-02T17:46:38;25.40;99.90
31133;DHT22;17779;50.942;4.026;2022-09-02T17:49:04;25.30;99.90
31133;DHT22;17779;50.942;4.026;2022-09-02T17:51:30;25.50;99.90
31133;DHT22;17779;50.942;4.026;2022-09-02T17:53:57;25.50;99.90
31133;DHT22;17779;50.942;4.026;2022-09-02T17:56:35;25.50;99.90
31133;DHT22;17779;50.942;4.026;2022-09-02T18:07:03;25.10;99.90